KEHY

Elk Mountain

Elk Mountain, Wyoming, USA
METAR KEHY 161415Z AUTO 30010KT 10SM SCT120 M02/M10 A2980 RMK AO2
Observed Flight Rules
Dec-16 @ 14:15 UTC (25 minutes ago) Visual Flight Rules
Wind Visibility Clouds
300° at 10 knots 10 miles
  • Scattered at 12,000' AGL
Temperatures Readings
Current -2°C / 28°F
Dewpoint -10°C / 14°F
Humidity 55%
Altimeter 29.8" Hg
Pressure 1009 hPa
Elevation 2225
METAR KEHY 161415Z AUTO 30010KT 10SM SCT120 M02/M10 A2980 RMK AO2
Observed Flight Rules
Dec-16 @ 14:15 UTC
(25 minutes ago)
VFR
Wind Visibility
300° at 10 knots 10 miles
Clouds
  • Scattered at 12,000' AGL
Temperature Dewpoint
-2°C / 28°F -10°C / 14°F
Humidity Altimeter Pressure
55% 29.8" Hg 1009 hPa